Weather at Augusto C. Sandino (Managua) International Airport

Public forecast

Using degrees Celsius for public forecast. Weather courtesy of forecast.io.

Current aviation weather report (METAR) for Augusto C. Sandino (Managua) International Airport

Report is more than 6 hours old.

2022/11/14 15:00 (retrieved 2 years ago)

MNMG 141500Z 09008KT 9999 FEW022 29/24 Q1012 A2989 1SC024 1AC080 2CI300 NOSIG

Closest aviation forecast (TAF) to Augusto C. Sandino (Managua) International Airport

Forecast is more than 12 hours old.

Closest forecast is Guanacaste Airport, 99.9 nm (185.1 km) SSE.

2023/02/22 18:12 (retrieved 1 year ago)

TAF TAF MRLB 221700Z 2218/2318 08016KT 9999 FEW040 TX33/2219Z TN22/2311Z